Lomax, North Carolina
Current Conditions -  °F | °C
As of 3:35 PM on Saturday 25 Oct 2014 (Local Time) from KUKF Reporting Station
Clear Clear  
Wind Chill: 73°   Ceiling: Unl
Heat Index: 73°   Visibility: 10mi
Dew Point: 34°   Wind: 3mph
Humidity: 23%   Direction: 260°W
Pressure: 29.99"   Gusts: NA
Location:  36.1874°N, 81.0013°W
Report Text: KUKF 251935Z AUTO 26003KT 10SM CLR 23/01 A2999 RMK AO2
Loading
Personal Weather Stations






























Interactive Weather Map
Tropical Storm Tracking
New forecast layout! Learn more

10-Day Weather Forecast

Advertisements
Track Severe Weather on mobile